createdAt,value
2022-09-13T00:04:04.225Z,18.45
2022-09-13T00:09:07.277Z,18.37
2022-09-13T00:14:10.430Z,18.49
2022-09-13T00:19:14.474Z,18.43
2022-09-13T00:24:17.564Z,18.46
2022-09-13T00:29:20.403Z,18.35
2022-09-13T00:34:24.714Z,18.20
2022-09-13T00:39:27.432Z,17.94
2022-09-13T00:44:55.157Z,17.65
2022-09-13T00:50:03.929Z,17.31
2022-09-13T00:55:13.064Z,17.17
2022-09-13T01:00:19.373Z,17.27
2022-09-13T01:05:27.726Z,17.28
2022-09-13T01:10:31.669Z,16.94
2022-09-13T01:15:34.372Z,16.93
2022-09-13T01:20:54.994Z,16.91
2022-09-13T01:26:32.375Z,16.66
2022-09-13T01:31:43.279Z,16.61
2022-09-13T01:37:09.290Z,16.70
2022-09-13T01:42:19.401Z,16.92
2022-09-13T01:47:28.999Z,16.79
2022-09-13T01:52:41.721Z,16.94
2022-09-13T01:57:51.576Z,17.03
2022-09-13T02:03:04.196Z,16.86
2022-09-13T02:08:12.917Z,17.16
2022-09-13T02:13:20.545Z,17.08
2022-09-13T02:18:30.977Z,17.20
2022-09-13T02:23:39.180Z,17.11
2022-09-13T02:28:43.919Z,17.10
2022-09-13T02:33:53.117Z,17.15
2022-09-13T02:39:01.158Z,16.92
2022-09-13T02:44:10.176Z,16.84
2022-09-13T02:49:19.012Z,16.79
2022-09-13T02:54:28.453Z,16.62
2022-09-13T02:59:31.258Z,16.73
2022-09-13T03:04:36.209Z,16.71
2022-09-13T03:09:47.205Z,16.75
2022-09-13T03:14:57.544Z,16.73
2022-09-13T03:20:10.780Z,16.73
2022-09-13T03:25:25.443Z,16.71
2022-09-13T03:30:28.536Z,16.74
2022-09-13T03:35:39.775Z,16.87
2022-09-13T03:40:49.155Z,16.92
2022-09-13T03:45:55.519Z,16.83
2022-09-13T03:50:59.668Z,16.92
2022-09-13T03:56:03.346Z,16.85
2022-09-13T04:01:06.317Z,16.83
2022-09-13T04:06:11.670Z,16.96
2022-09-13T04:11:14.334Z,17.08
2022-09-13T04:16:17.575Z,16.93
2022-09-13T04:21:21.882Z,17.04
2022-09-13T04:26:24.561Z,16.88
2022-09-13T04:31:27.318Z,16.70
2022-09-13T04:36:32.032Z,16.77
2022-09-13T04:41:34.945Z,16.84
2022-09-13T04:46:37.665Z,16.59
2022-09-13T04:51:41.874Z,16.33
2022-09-13T04:56:45.448Z,16.46
2022-09-13T05:01:48.303Z,16.27
2022-09-13T05:06:52.480Z,16.41
2022-09-13T05:11:55.189Z,16.25
2022-09-13T05:16:57.898Z,16.33
2022-09-13T05:22:02.147Z,16.42
2022-09-13T05:27:05.678Z,16.35
2022-09-13T05:32:08.658Z,16.41
2022-09-13T05:37:12.788Z,16.29
2022-09-13T05:42:15.689Z,16.44
2022-09-13T05:47:18.433Z,16.72
2022-09-13T05:52:22.544Z,17.07
2022-09-13T05:57:25.327Z,16.90
2022-09-13T06:02:28.150Z,16.85
2022-09-13T06:07:32.428Z,17.07
2022-09-13T06:12:35.438Z,17.25
2022-09-13T06:17:38.299Z,17.02
2022-09-13T06:22:42.360Z,17.29
2022-09-13T06:27:45.229Z,17.15
2022-09-13T06:32:47.952Z,17.66
2022-09-13T06:37:52.404Z,17.73
2022-09-13T06:42:55.131Z,18.31
2022-09-13T06:47:58.181Z,18.27
2022-09-13T06:53:02.249Z,18.22
2022-09-13T06:58:05.032Z,18.41
2022-09-13T07:03:07.749Z,18.62
2022-09-13T07:08:11.815Z,18.83
2022-09-13T07:13:14.582Z,19.11
2022-09-13T07:18:17.281Z,19.64
2022-09-13T07:23:21.346Z,20.07
2022-09-13T07:28:27.352Z,19.94
2022-09-13T07:33:30.229Z,19.06
2022-09-13T07:38:35.721Z,18.88
2022-09-13T07:43:38.702Z,19.81
2022-09-13T07:48:43.233Z,19.99
2022-09-13T07:53:48.101Z,19.70
2022-09-13T07:58:52.676Z,19.14
2022-09-13T08:03:57.269Z,19.70
2022-09-13T08:09:01.701Z,19.52
2022-09-13T08:14:05.435Z,19.42
2022-09-13T08:19:09.447Z,19.53
2022-09-13T08:24:17.020Z,19.33
2022-09-13T08:29:19.790Z,19.18
2022-09-13T08:34:22.574Z,19.56
2022-09-13T08:39:29.183Z,19.73
2022-09-13T08:44:46.620Z,20.08
2022-09-13T08:49:53.298Z,19.95
2022-09-13T08:54:58.581Z,20.28
2022-09-13T09:00:09.700Z,20.11
2022-09-13T09:05:18.308Z,20.46
2022-09-13T09:10:27.404Z,20.37
2022-09-13T09:15:35.230Z,20.00
2022-09-13T09:20:42.461Z,20.44
2022-09-13T09:25:47.291Z,20.30
2022-09-13T09:31:00.026Z,20.19
2022-09-13T09:36:11.181Z,19.90
2022-09-13T09:41:27.112Z,20.18
2022-09-13T09:46:35.343Z,20.37
2022-09-13T09:51:38.205Z,20.74
2022-09-13T09:56:53.834Z,21.04
2022-09-13T10:01:57.816Z,21.29
2022-09-13T10:07:20.092Z,21.42
2022-09-13T10:12:29.353Z,21.38
2022-09-13T10:17:32.210Z,20.79
2022-09-13T10:22:34.987Z,20.56
2022-09-13T10:27:43.210Z,20.37
2022-09-13T10:32:56.570Z,20.52
2022-09-13T10:37:59.524Z,21.65
2022-09-13T10:43:08.372Z,22.22
2022-09-13T10:48:14.887Z,22.53
2022-09-13T10:53:34.614Z,22.27
2022-09-13T10:58:38.774Z,22.59
2022-09-13T11:04:04.547Z,22.78
2022-09-13T11:09:14.534Z,23.06
2022-09-13T11:14:32.836Z,22.70
2022-09-13T11:19:59.455Z,22.37
2022-09-13T11:25:14.943Z,22.54
2022-09-13T11:30:21.206Z,22.37
2022-09-13T11:35:44.874Z,22.76
2022-09-13T11:40:56.666Z,22.75
2022-09-13T11:46:09.873Z,22.99
2022-09-13T11:51:19.287Z,22.52
2022-09-13T11:56:27.491Z,22.19
2022-09-13T12:01:40.184Z,22.61
2022-09-13T12:06:47.391Z,23.34
2022-09-13T12:11:54.210Z,22.83
2022-09-13T12:17:04.741Z,23.07
2022-09-13T12:22:09.187Z,22.58
2022-09-13T12:27:23.133Z,22.40
2022-09-13T12:32:29.035Z,22.87
2022-09-13T12:37:50.041Z,22.76
2022-09-13T12:43:13.644Z,22.65
2022-09-13T12:48:40.497Z,22.66
2022-09-13T12:54:02.534Z,22.56
2022-09-13T12:59:28.167Z,22.26
2022-09-13T13:04:37.485Z,21.63
2022-09-13T13:09:44.252Z,21.03
2022-09-13T13:14:53.543Z,21.04
2022-09-13T13:19:57.950Z,21.67
2022-09-13T13:25:36.719Z,22.24
2022-09-13T13:30:44.098Z,21.82
2022-09-13T13:35:49.061Z,22.27
2022-09-13T13:40:54.067Z,22.17
2022-09-13T13:46:16.101Z,21.34
2022-09-13T13:51:26.223Z,20.99
2022-09-13T13:56:50.524Z,20.89
2022-09-13T14:01:59.250Z,20.65
2022-09-13T14:07:19.520Z,20.96
2022-09-13T14:12:33.943Z,20.79
2022-09-13T14:18:14.784Z,20.84
2022-09-13T14:23:20.107Z,20.66
2022-09-13T14:28:24.171Z,20.78
2022-09-13T14:33:32.038Z,20.65
2022-09-13T14:38:37.489Z,20.14
2022-09-13T14:43:40.427Z,19.64
2022-09-13T14:48:50.173Z,19.95
2022-09-13T14:54:00.822Z,20.05
2022-09-13T14:59:06.597Z,19.94
2022-09-13T15:04:10.040Z,19.43
2022-09-13T15:09:28.567Z,19.32
2022-09-13T15:14:32.933Z,19.54
2022-09-13T15:19:41.785Z,19.74
2022-09-13T15:24:48.945Z,19.52
2022-09-13T15:29:53.905Z,19.30
2022-09-13T15:34:58.468Z,18.95
2022-09-13T15:40:16.794Z,18.81
2022-09-13T15:45:20.577Z,18.65
2022-09-13T15:50:26.852Z,18.93
2022-09-13T15:55:32.376Z,18.81
2022-09-13T16:00:36.901Z,18.65
2022-09-13T16:05:39.895Z,18.50
2022-09-13T16:10:44.065Z,18.44
2022-09-13T16:15:47.245Z,18.39
2022-09-13T16:20:51.003Z,18.50
2022-09-13T16:25:58.114Z,18.44
2022-09-13T16:31:00.955Z,18.50
2022-09-13T16:36:04.125Z,18.48
2022-09-13T16:41:08.639Z,18.30
2022-09-13T16:46:13.505Z,18.29
2022-09-13T16:51:16.763Z,17.94
2022-09-13T16:56:22.754Z,17.98
2022-09-13T17:01:27.386Z,18.07
2022-09-13T17:06:30.285Z,17.81
2022-09-13T17:11:36.435Z,17.79
2022-09-13T17:16:41.370Z,17.49
2022-09-13T17:21:44.381Z,17.30
2022-09-13T17:26:48.812Z,17.28
2022-09-13T17:31:51.724Z,17.13
2022-09-13T17:36:54.704Z,17.00
2022-09-13T17:42:06.255Z,16.92
2022-09-13T17:47:09.086Z,16.87
2022-09-13T17:52:12.009Z,16.90
2022-09-13T17:57:16.313Z,16.82
2022-09-13T18:02:19.263Z,16.87
2022-09-13T18:07:22.213Z,16.88
2022-09-13T18:12:26.480Z,16.76
2022-09-13T18:17:29.240Z,16.69
2022-09-13T18:22:34.761Z,16.96
2022-09-13T18:27:38.999Z,17.00
2022-09-13T18:32:41.819Z,17.06
2022-09-13T18:37:44.713Z,17.19
2022-09-13T18:42:48.832Z,17.14
2022-09-13T18:47:51.656Z,17.07
2022-09-13T18:52:54.365Z,17.09
2022-09-13T18:57:58.579Z,16.91
2022-09-13T19:03:11.980Z,16.68
2022-09-13T19:08:15.623Z,16.71
2022-09-13T19:13:19.868Z,16.67
2022-09-13T19:18:22.654Z,16.76
2022-09-13T19:23:37.676Z,16.80
2022-09-13T19:29:00.107Z,16.89
2022-09-13T19:34:04.246Z,16.79
2022-09-13T19:39:08.820Z,16.62
2022-09-13T19:44:20.033Z,16.55
2022-09-13T19:49:23.162Z,16.50
2022-09-13T19:54:28.359Z,16.59
2022-09-13T19:59:42.508Z,16.55
2022-09-13T20:04:47.956Z,16.58
2022-09-13T20:09:51.301Z,16.66
2022-09-13T20:14:55.415Z,16.69
2022-09-13T20:19:58.474Z,16.70
2022-09-13T20:25:01.424Z,16.58
2022-09-13T20:30:06.485Z,16.53
2022-09-13T20:35:11.086Z,16.49
2022-09-13T20:40:15.038Z,16.36
2022-09-13T20:45:19.395Z,16.36
2022-09-13T20:50:22.122Z,16.40
2022-09-13T20:55:25.077Z,16.50
2022-09-13T21:00:29.135Z,16.37
2022-09-13T21:05:32.170Z,16.31
2022-09-13T21:10:35.586Z,16.17
2022-09-13T21:15:40.152Z,16.14
2022-09-13T21:20:42.973Z,15.90
2022-09-13T21:25:46.067Z,15.81
2022-09-13T21:30:58.408Z,15.72
2022-09-13T21:36:02.498Z,15.87
2022-09-13T21:41:07.648Z,15.89
2022-09-13T21:46:16.471Z,15.92
2022-09-13T21:51:21.552Z,15.83
2022-09-13T21:56:26.619Z,15.85
2022-09-13T22:01:33.162Z,15.71
2022-09-13T22:06:36.041Z,15.73
2022-09-13T22:11:43.572Z,15.74
2022-09-13T22:16:47.800Z,15.75
2022-09-13T22:21:54.015Z,15.80
2022-09-13T22:26:58.097Z,15.79
2022-09-13T22:32:02.456Z,15.69
2022-09-13T22:37:05.521Z,15.53
2022-09-13T22:42:08.492Z,15.40
2022-09-13T22:47:12.567Z,15.29
2022-09-13T22:52:15.286Z,15.23
2022-09-13T22:57:18.237Z,15.17
2022-09-13T23:02:22.290Z,15.04
2022-09-13T23:07:25.682Z,14.95
2022-09-13T23:12:30.410Z,14.92
2022-09-13T23:17:34.540Z,14.85
2022-09-13T23:22:37.297Z,14.87
2022-09-13T23:27:40.155Z,14.86
2022-09-13T23:32:47.463Z,14.72
2022-09-13T23:37:50.267Z,14.70
2022-09-13T23:42:52.980Z,14.69
2022-09-13T23:47:57.050Z,14.71
2022-09-13T23:53:00.408Z,14.69
2022-09-13T23:58:03.106Z,14.68
